createdAt,value
2016-08-12T00:00:45.480Z,0
2016-08-12T00:01:45.448Z,0
2016-08-12T00:03:45.412Z,0
2016-08-12T00:04:46.082Z,0
2016-08-12T00:05:45.393Z,0
2016-08-12T00:06:45.593Z,0
2016-08-12T00:07:45.330Z,0
2016-08-12T00:08:45.350Z,0
2016-08-12T00:09:45.324Z,0
2016-08-12T00:10:46.030Z,0
2016-08-12T00:11:45.977Z,0
2016-08-12T00:12:45.271Z,0
2016-08-12T00:13:45.235Z,0
2016-08-12T00:14:45.223Z,0
2016-08-12T00:15:45.225Z,0
2016-08-12T00:16:45.209Z,0
2016-08-12T00:17:45.184Z,0
2016-08-12T00:18:45.180Z,0
2016-08-12T00:20:45.128Z,0
2016-08-12T00:21:45.110Z,0
2016-08-12T00:22:45.106Z,0
2016-08-12T00:23:45.074Z,0
2016-08-12T00:24:45.076Z,0
2016-08-12T00:25:45.074Z,0
2016-08-12T00:26:45.751Z,0
2016-08-12T00:27:45.035Z,0
2016-08-12T00:28:45.026Z,0
2016-08-12T00:29:44.981Z,0
2016-08-12T00:30:44.970Z,0
2016-08-12T00:31:44.969Z,0
2016-08-12T00:32:45.638Z,0
2016-08-12T00:33:44.912Z,0
2016-08-12T00:34:44.906Z,0
2016-08-12T00:35:44.872Z,0
2016-08-12T00:36:44.879Z,0
2016-08-12T00:37:44.866Z,0
2016-08-12T00:38:44.815Z,0
2016-08-12T00:39:44.841Z,0
2016-08-12T00:40:44.795Z,0
2016-08-12T00:41:44.774Z,0
2016-08-12T00:42:44.757Z,0
2016-08-12T00:43:44.768Z,0
2016-08-12T00:44:44.767Z,0
2016-08-12T00:45:44.751Z,0
2016-08-12T00:46:44.694Z,0
2016-08-12T00:47:44.679Z,0
2016-08-12T00:48:44.644Z,0
2016-08-12T00:49:44.653Z,0
2016-08-12T00:50:44.646Z,0
2016-08-12T00:51:44.642Z,0
2016-08-12T00:52:44.603Z,0
2016-08-12T00:53:44.604Z,0
2016-08-12T00:54:44.572Z,0
2016-08-12T00:55:45.264Z,0
2016-08-12T00:56:44.578Z,0
2016-08-12T00:57:44.545Z,0
2016-08-12T00:58:44.518Z,0
2016-08-12T00:59:44.509Z,0
2016-08-12T01:00:44.460Z,0
2016-08-12T01:01:44.459Z,0
2016-08-12T01:02:44.443Z,0
2016-08-12T01:03:44.438Z,0
2016-08-12T01:04:44.415Z,0
2016-08-12T01:05:44.397Z,0
2016-08-12T01:06:44.627Z,0
2016-08-12T01:07:44.326Z,0
2016-08-12T01:08:44.347Z,0
2016-08-12T01:09:44.336Z,0
2016-08-12T01:10:44.293Z,0
2016-08-12T01:11:44.304Z,0
2016-08-12T01:12:44.279Z,0
2016-08-12T01:13:44.293Z,0
2016-08-12T01:14:44.226Z,0
2016-08-12T01:15:44.237Z,0
2016-08-12T01:16:44.209Z,0
2016-08-12T01:17:44.197Z,0
2016-08-12T01:18:44.198Z,0
2016-08-12T01:19:44.173Z,0
2016-08-12T01:20:44.184Z,0
2016-08-12T01:21:44.146Z,0
2016-08-12T01:22:44.124Z,0
2016-08-12T01:23:44.093Z,0
2016-08-12T01:24:44.769Z,0
2016-08-12T01:25:44.077Z,0
2016-08-12T01:26:44.058Z,0
2016-08-12T01:27:44.010Z,0
2016-08-12T01:28:44.020Z,0
2016-08-12T01:29:44.035Z,0
2016-08-12T01:30:44.007Z,0
2016-08-12T01:31:43.971Z,0
2016-08-12T01:32:43.982Z,0
2016-08-12T01:33:43.916Z,0
2016-08-12T01:34:43.909Z,0
2016-08-12T01:35:43.923Z,0
2016-08-12T01:36:43.893Z,0
2016-08-12T01:37:43.875Z,0
2016-08-12T01:38:43.829Z,0
2016-08-12T01:39:43.841Z,0
2016-08-12T01:40:43.831Z,0
2016-08-12T01:41:43.791Z,0
2016-08-12T01:42:43.756Z,0
2016-08-12T01:43:43.787Z,0
2016-08-12T01:44:43.729Z,0
2016-08-12T01:45:43.734Z,0
2016-08-12T01:46:43.747Z,0
2016-08-12T01:47:43.701Z,0
2016-08-12T01:48:43.684Z,0
2016-08-12T01:49:43.676Z,0
2016-08-12T01:50:43.655Z,0
2016-08-12T01:51:43.613Z,0
2016-08-12T01:52:43.629Z,0
2016-08-12T01:53:43.582Z,0
2016-08-12T01:54:43.583Z,0
2016-08-12T01:55:43.575Z,0
2016-08-12T01:56:43.527Z,0
2016-08-12T01:57:43.533Z,0
2016-08-12T01:58:43.537Z,0
2016-08-12T01:59:43.482Z,0
2016-08-12T02:00:43.485Z,0
2016-08-12T02:01:43.495Z,0
2016-08-12T02:02:43.455Z,0
2016-08-12T02:03:43.467Z,0
2016-08-12T02:04:43.409Z,0
2016-08-12T02:05:43.415Z,0
2016-08-12T02:06:43.450Z,0
2016-08-12T02:07:43.348Z,0
2016-08-12T02:08:43.378Z,0
2016-08-12T02:09:43.322Z,0
2016-08-12T02:10:43.334Z,0
2016-08-12T02:11:43.302Z,0
2016-08-12T02:12:43.292Z,0
2016-08-12T02:13:43.240Z,0
2016-08-12T02:14:43.241Z,0
2016-08-12T02:15:43.242Z,0
2016-08-12T02:16:43.216Z,0
2016-08-12T02:17:43.195Z,0
2016-08-12T02:18:43.174Z,0
2016-08-12T02:19:43.166Z,0
2016-08-12T02:20:43.127Z,0
2016-08-12T02:21:43.136Z,0
2016-08-12T02:22:43.123Z,0
2016-08-12T02:23:43.107Z,0
2016-08-12T02:24:43.060Z,0
2016-08-12T02:25:43.090Z,0
2016-08-12T02:26:43.038Z,0
2016-08-12T02:27:43.721Z,0
2016-08-12T02:28:43.000Z,0
2016-08-12T02:29:42.987Z,0
2016-08-12T02:30:42.987Z,0
2016-08-12T02:31:42.962Z,0
2016-08-12T02:32:42.934Z,0
2016-08-12T02:33:42.901Z,0
2016-08-12T02:34:42.911Z,0
2016-08-12T02:35:42.889Z,0
2016-08-12T02:36:42.859Z,0
2016-08-12T02:37:42.833Z,0
2016-08-12T02:38:42.824Z,0
2016-08-12T02:39:42.831Z,0
2016-08-12T02:40:42.803Z,0
2016-08-12T02:41:42.793Z,0
2016-08-12T02:42:42.758Z,0
2016-08-12T02:43:42.750Z,0
2016-08-12T02:44:42.739Z,0
2016-08-12T02:45:42.739Z,0
2016-08-12T02:46:42.711Z,0
2016-08-12T02:47:42.683Z,0
2016-08-12T02:48:42.712Z,0
2016-08-12T02:49:42.645Z,0
2016-08-12T02:50:42.629Z,0
2016-08-12T02:51:42.641Z,0
2016-08-12T02:52:42.615Z,0
2016-08-12T02:53:42.595Z,0
2016-08-12T02:54:42.563Z,0
2016-08-12T02:55:42.577Z,0
2016-08-12T02:56:42.565Z,0
2016-08-12T02:57:42.526Z,0
2016-08-12T02:58:42.512Z,0
2016-08-12T02:59:42.510Z,0
2016-08-12T03:00:42.491Z,0
2016-08-12T03:01:42.457Z,0
2016-08-12T03:02:42.441Z,0
2016-08-12T03:03:42.415Z,0
2016-08-12T03:04:42.401Z,0
2016-08-12T03:05:42.399Z,0
2016-08-12T03:06:42.394Z,0
2016-08-12T03:07:42.401Z,0
2016-08-12T03:08:42.346Z,0
2016-08-12T03:09:42.319Z,0
2016-08-12T03:10:42.279Z,0
2016-08-12T03:11:42.980Z,0
2016-08-12T03:12:42.312Z,0
2016-08-12T03:13:42.264Z,0
2016-08-12T03:14:42.278Z,0
2016-08-12T03:15:42.244Z,0
2016-08-12T03:16:42.197Z,0
2016-08-12T03:17:42.234Z,0
2016-08-12T03:19:42.136Z,0
2016-08-12T03:20:42.140Z,0
2016-08-12T03:21:42.112Z,0
2016-08-12T03:22:42.128Z,0
2016-08-12T03:23:42.098Z,0
2016-08-12T03:24:42.096Z,0
2016-08-12T03:25:42.077Z,0
2016-08-12T03:26:42.052Z,0
2016-08-12T03:27:42.048Z,0
2016-08-12T03:28:41.996Z,0
2016-08-12T03:29:41.992Z,0
2016-08-12T03:30:41.999Z,0
2016-08-12T03:31:41.966Z,0
2016-08-12T03:32:41.930Z,0
2016-08-12T03:33:41.988Z,0
2016-08-12T03:34:41.920Z,0
2016-08-12T03:35:41.901Z,0
2016-08-12T03:36:42.616Z,0
2016-08-12T03:37:41.867Z,0
2016-08-12T03:38:41.823Z,0
2016-08-12T03:39:41.834Z,0
2016-08-12T03:40:41.824Z,0
2016-08-12T03:41:41.825Z,0
2016-08-12T03:42:41.763Z,0
2016-08-12T03:43:41.795Z,0
2016-08-12T03:44:41.773Z,0
2016-08-12T03:45:41.748Z,0
2016-08-12T03:46:41.688Z,0
2016-08-12T03:47:41.686Z,0
2016-08-12T03:48:41.701Z,0
2016-08-12T03:49:41.681Z,0
2016-08-12T03:50:41.646Z,0
2016-08-12T03:51:41.618Z,0
2016-08-12T03:52:41.643Z,0
2016-08-12T03:53:41.636Z,0
2016-08-12T03:54:41.582Z,0
2016-08-12T03:55:41.580Z,0
2016-08-12T03:56:41.566Z,0
2016-08-12T03:57:41.534Z,0
2016-08-12T03:58:41.541Z,0
2016-08-12T03:59:41.513Z,0
2016-08-12T04:00:41.486Z,0
2016-08-12T04:01:41.472Z,0
2016-08-12T04:02:41.466Z,0
2016-08-12T04:03:41.460Z,0
2016-08-12T04:04:41.452Z,0
2016-08-12T04:05:41.428Z,0
2016-08-12T04:06:41.391Z,0
2016-08-12T04:07:41.551Z,0
2016-08-12T04:08:41.370Z,0
2016-08-12T04:09:41.347Z,0
2016-08-12T04:10:41.333Z,0
2016-08-12T04:11:41.330Z,5
2016-08-12T04:12:41.279Z,5
2016-08-12T04:13:41.275Z,0
2016-08-12T04:14:41.248Z,5
2016-08-12T04:15:41.249Z,5
2016-08-12T04:16:41.242Z,5
2016-08-12T04:17:41.249Z,5
2016-08-12T04:18:41.203Z,10
2016-08-12T04:19:41.195Z,10
2016-08-12T04:20:41.173Z,10
2016-08-12T04:21:41.154Z,10
2016-08-12T04:22:41.130Z,10
2016-08-12T04:23:41.818Z,10
2016-08-12T04:24:41.126Z,15
2016-08-12T04:25:41.108Z,15
2016-08-12T04:26:41.080Z,15
2016-08-12T04:27:41.080Z,15
2016-08-12T04:28:41.035Z,20
2016-08-12T04:29:41.018Z,20
2016-08-12T04:30:40.988Z,20
2016-08-12T04:31:40.998Z,20
2016-08-12T04:32:40.963Z,20
2016-08-12T04:33:40.948Z,20
2016-08-12T04:34:40.932Z,20
2016-08-12T04:35:40.896Z,20
2016-08-12T04:36:40.900Z,20
2016-08-12T04:37:40.922Z,20
2016-08-12T04:38:40.900Z,25
2016-08-12T04:39:40.845Z,25
2016-08-12T04:40:40.853Z,25
2016-08-12T04:41:40.833Z,25
2016-08-12T04:42:40.847Z,30
2016-08-12T04:43:40.797Z,30
2016-08-12T04:44:40.783Z,30
2016-08-12T04:45:40.774Z,30
2016-08-12T04:46:40.743Z,35
2016-08-12T04:47:40.737Z,40
2016-08-12T04:48:40.732Z,45
2016-08-12T04:49:40.703Z,50
2016-08-12T04:50:40.699Z,55
2016-08-12T04:51:40.647Z,55
2016-08-12T04:52:40.656Z,55
2016-08-12T04:53:40.640Z,55
2016-08-12T04:54:41.325Z,60
2016-08-12T04:55:40.584Z,50
2016-08-12T04:56:40.592Z,55
2016-08-12T04:57:40.570Z,55
2016-08-12T04:58:41.258Z,55
2016-08-12T04:59:40.551Z,60
2016-08-12T05:00:40.522Z,60
2016-08-12T05:01:40.474Z,60
2016-08-12T05:02:40.518Z,60
2016-08-12T05:03:40.490Z,60
2016-08-12T05:04:40.458Z,65
2016-08-12T05:05:40.432Z,75
2016-08-12T05:06:40.415Z,70
2016-08-12T05:07:40.465Z,75
2016-08-12T05:08:40.381Z,70
2016-08-12T05:09:40.386Z,75
2016-08-12T05:10:41.080Z,75
2016-08-12T05:11:41.040Z,85
2016-08-12T05:12:40.312Z,95
2016-08-12T05:13:40.327Z,100
2016-08-12T05:14:40.334Z,110
2016-08-12T05:15:40.296Z,110
2016-08-12T05:16:40.283Z,110
2016-08-12T05:17:40.231Z,115
2016-08-12T05:18:40.219Z,115
2016-08-12T05:19:40.224Z,120
2016-08-12T05:20:40.191Z,125
2016-08-12T05:21:40.188Z,120
2016-08-12T05:22:40.177Z,110
2016-08-12T05:23:40.143Z,100
2016-08-12T05:24:40.141Z,100
2016-08-12T05:25:40.845Z,90
2016-08-12T05:26:40.101Z,85
2016-08-12T05:27:40.109Z,85
2016-08-12T05:28:40.062Z,80
2016-08-12T05:29:40.739Z,75
2016-08-12T05:30:40.020Z,75
2016-08-12T05:31:40.015Z,75
2016-08-12T05:32:40.019Z,75
2016-08-12T05:33:40.002Z,80
2016-08-12T05:34:39.987Z,75
2016-08-12T05:35:39.970Z,70
2016-08-12T05:36:39.938Z,75
2016-08-12T05:37:39.938Z,70
2016-08-12T05:38:39.907Z,70
2016-08-12T05:39:39.917Z,80
2016-08-12T05:40:39.887Z,85
2016-08-12T05:41:39.862Z,95
2016-08-12T05:42:39.836Z,90
2016-08-12T05:43:39.835Z,95
2016-08-12T05:44:39.842Z,90
2016-08-12T05:45:39.811Z,85
2016-08-12T05:46:39.783Z,90
2016-08-12T05:47:39.767Z,85
2016-08-12T05:48:39.779Z,80
2016-08-12T05:49:39.736Z,80
2016-08-12T05:50:39.733Z,80
2016-08-12T05:51:39.707Z,85
2016-08-12T05:52:39.663Z,85
2016-08-12T05:53:39.701Z,90
2016-08-12T05:54:39.699Z,85
2016-08-12T05:55:39.637Z,80
2016-08-12T05:56:39.620Z,80
2016-08-12T05:57:39.617Z,85
2016-08-12T05:58:39.628Z,85
2016-08-12T05:59:39.556Z,90
2016-08-12T06:00:39.591Z,95
2016-08-12T06:01:39.562Z,95
2016-08-12T06:02:39.559Z,100
2016-08-12T06:03:39.501Z,105
2016-08-12T06:04:39.515Z,110
2016-08-12T06:05:39.513Z,110
2016-08-12T06:06:39.501Z,110
2016-08-12T06:07:39.481Z,105
2016-08-12T06:08:40.140Z,105
2016-08-12T06:09:39.441Z,110
2016-08-12T06:10:39.426Z,115
2016-08-12T06:11:39.408Z,115
2016-08-12T06:12:39.387Z,115
2016-08-12T06:13:39.374Z,120
2016-08-12T06:14:39.360Z,120
2016-08-12T06:15:39.356Z,115
2016-08-12T06:16:39.322Z,110
2016-08-12T06:17:39.296Z,105
2016-08-12T06:18:39.300Z,100
2016-08-12T06:19:39.312Z,100
2016-08-12T06:20:39.274Z,100
2016-08-12T06:21:39.255Z,105
2016-08-12T06:22:39.256Z,105
2016-08-12T06:23:39.248Z,105
2016-08-12T06:24:39.230Z,105
2016-08-12T06:25:39.893Z,100
2016-08-12T06:26:39.179Z,100
2016-08-12T06:27:39.171Z,110
2016-08-12T06:28:39.174Z,110
2016-08-12T06:29:39.157Z,110
2016-08-12T06:30:39.138Z,110
2016-08-12T06:31:39.116Z,110
2016-08-12T06:32:39.122Z,110
2016-08-12T06:33:39.082Z,110
2016-08-12T06:34:39.073Z,100
2016-08-12T06:35:39.071Z,105
2016-08-12T06:36:39.058Z,115
2016-08-12T06:37:39.047Z,115
2016-08-12T06:38:38.994Z,110
2016-08-12T06:39:38.977Z,110
2016-08-12T06:40:38.988Z,105
2016-08-12T06:41:38.946Z,110
2016-08-12T06:42:38.940Z,110
2016-08-12T06:43:38.937Z,110
2016-08-12T06:44:38.915Z,105
2016-08-12T06:45:38.928Z,105
2016-08-12T06:46:38.921Z,100
2016-08-12T06:47:38.866Z,105
2016-08-12T06:48:38.873Z,110
2016-08-12T06:49:38.855Z,120
2016-08-12T06:50:38.834Z,120
2016-08-12T06:51:38.800Z,120
2016-08-12T06:52:39.504Z,120
2016-08-12T06:56:10.846Z,120
2016-08-12T06:56:38.750Z,120
2016-08-12T06:57:38.746Z,115
2016-08-12T06:58:38.713Z,115
2016-08-12T06:59:38.717Z,115
2016-08-12T07:00:38.689Z,115
2016-08-12T07:01:38.647Z,115
2016-08-12T07:02:38.679Z,110
2016-08-12T07:03:38.637Z,110
2016-08-12T07:04:38.671Z,115
2016-08-12T07:05:38.609Z,125
2016-08-12T07:06:38.608Z,130
2016-08-12T07:07:38.649Z,125
2016-08-12T07:08:38.583Z,125
2016-08-12T07:09:38.574Z,125
2016-08-12T07:10:38.543Z,125
2016-08-12T07:11:38.527Z,120
2016-08-12T07:12:38.522Z,125
2016-08-12T07:13:38.502Z,125
2016-08-12T07:14:38.499Z,130
2016-08-12T07:15:38.476Z,130
2016-08-12T07:16:38.455Z,135
2016-08-12T07:17:38.433Z,135
2016-08-12T07:18:38.450Z,140
2016-08-12T07:19:39.131Z,135
2016-08-12T07:20:38.388Z,135
2016-08-12T07:21:38.413Z,135
2016-08-12T07:22:38.375Z,135
2016-08-12T07:23:39.059Z,130
2016-08-12T07:24:38.345Z,130
2016-08-12T07:25:38.360Z,125
2016-08-12T07:26:38.309Z,130
2016-08-12T07:27:39.052Z,125
2016-08-12T07:28:38.303Z,125
2016-08-12T07:29:38.301Z,130
2016-08-12T07:30:38.251Z,125
2016-08-12T07:31:38.255Z,135
2016-08-12T07:32:38.248Z,135
2016-08-12T07:33:38.204Z,130
2016-08-12T07:34:38.226Z,130
2016-08-12T07:35:38.206Z,130
2016-08-12T07:36:38.184Z,135
2016-08-12T07:37:38.195Z,135
2016-08-12T07:38:38.141Z,140
2016-08-12T07:39:38.142Z,135
2016-08-12T07:40:38.112Z,135
2016-08-12T07:41:38.129Z,135
2016-08-12T07:42:38.102Z,135
2016-08-12T07:43:38.772Z,140
2016-08-12T07:44:38.075Z,145
2016-08-12T07:45:38.076Z,145
2016-08-12T07:46:38.051Z,150
2016-08-12T07:47:38.016Z,155
2016-08-12T07:48:38.009Z,160
2016-08-12T07:49:37.991Z,170
2016-08-12T07:50:38.031Z,170
2016-08-12T07:51:37.946Z,170
2016-08-12T07:52:37.966Z,170
2016-08-12T07:53:37.921Z,175
2016-08-12T07:54:37.926Z,175
2016-08-12T07:55:37.932Z,175
2016-08-12T07:56:37.915Z,170
2016-08-12T07:57:37.930Z,175
2016-08-12T07:58:37.880Z,170
2016-08-12T07:59:37.871Z,175
2016-08-12T08:00:37.858Z,175
2016-08-12T08:01:37.857Z,170
2016-08-12T08:02:37.820Z,175
2016-08-12T08:03:37.817Z,170
2016-08-12T08:05:38.463Z,170
2016-08-12T08:06:37.757Z,170
2016-08-12T08:07:37.754Z,170
2016-08-12T08:08:37.774Z,165
2016-08-12T08:09:37.703Z,165
2016-08-12T08:10:37.725Z,170
2016-08-12T08:11:37.691Z,175
2016-08-12T08:12:38.388Z,175
2016-08-12T08:13:37.662Z,175
2016-08-12T08:14:37.678Z,175
2016-08-12T08:15:37.630Z,175
2016-08-12T08:16:37.652Z,175
2016-08-12T08:17:37.601Z,175
2016-08-12T08:18:37.599Z,180
2016-08-12T08:20:38.283Z,190
2016-08-12T08:21:37.538Z,195
2016-08-12T08:22:37.542Z,195
2016-08-12T08:23:37.538Z,195
2016-08-12T08:24:37.507Z,200
2016-08-12T08:25:37.497Z,200
2016-08-12T08:26:38.187Z,205
2016-08-12T08:27:37.452Z,210
2016-08-12T08:28:37.477Z,215
2016-08-12T08:29:37.453Z,215
2016-08-12T08:30:37.446Z,215
2016-08-12T08:31:37.435Z,210
2016-08-12T08:32:37.413Z,210
2016-08-12T08:33:37.379Z,215
2016-08-12T08:35:37.395Z,225
2016-08-12T08:36:37.339Z,230
2016-08-12T08:37:37.362Z,230
2016-08-12T08:38:37.319Z,230
2016-08-12T08:39:37.328Z,230
2016-08-12T08:40:37.310Z,235
2016-08-12T08:41:37.307Z,235
2016-08-12T08:42:37.266Z,230
2016-08-12T08:43:37.267Z,230
2016-08-12T08:44:37.957Z,225
2016-08-12T08:45:37.250Z,230
2016-08-12T08:46:37.953Z,245
2016-08-12T08:47:37.207Z,265
2016-08-12T08:48:37.191Z,275
2016-08-12T08:50:37.093Z,290
2016-08-12T08:51:37.152Z,295
2016-08-12T08:52:37.172Z,295
2016-08-12T08:53:37.138Z,320
2016-08-12T08:54:37.134Z,320
2016-08-12T08:55:37.124Z,310
2016-08-12T08:56:37.773Z,305
2016-08-12T08:57:37.082Z,300
2016-08-12T08:58:37.071Z,305
2016-08-12T08:59:37.041Z,315
2016-08-12T09:00:37.045Z,320
2016-08-12T09:01:37.059Z,325
2016-08-12T09:02:37.038Z,330
2016-08-12T09:03:37.005Z,345
2016-08-12T09:04:37.018Z,340
2016-08-12T09:05:36.997Z,350
2016-08-12T09:06:36.989Z,355
2016-08-12T09:07:36.960Z,355
2016-08-12T09:08:37.020Z,345
2016-08-12T09:09:36.940Z,350
2016-08-12T09:10:36.931Z,365
2016-08-12T09:11:36.907Z,375
2016-08-12T09:12:36.902Z,360
2016-08-12T09:13:37.598Z,360
2016-08-12T09:14:37.618Z,360
2016-08-12T09:15:37.562Z,360
2016-08-12T09:16:36.854Z,365
2016-08-12T09:17:36.834Z,370
2016-08-12T09:18:36.848Z,375
2016-08-12T09:19:36.796Z,380
2016-08-12T09:20:36.831Z,360
2016-08-12T09:21:36.774Z,350
2016-08-12T09:22:36.781Z,370
2016-08-12T09:23:36.774Z,375
2016-08-12T09:24:36.733Z,360
2016-08-12T09:25:36.748Z,350
2016-08-12T09:26:36.742Z,350
2016-08-12T09:27:36.712Z,340
2016-08-12T09:28:36.687Z,335
2016-08-12T09:29:36.671Z,350
2016-08-12T09:30:36.676Z,385
2016-08-12T09:31:36.676Z,400
2016-08-12T09:32:36.664Z,400
2016-08-12T09:33:36.624Z,385
2016-08-12T09:34:36.605Z,385
2016-08-12T09:35:36.610Z,410
2016-08-12T09:36:36.624Z,400
2016-08-12T09:37:36.580Z,380
2016-08-12T09:38:36.580Z,380
2016-08-12T09:39:36.555Z,400
2016-08-12T09:40:36.573Z,400
2016-08-12T09:41:36.526Z,400
2016-08-12T09:42:36.523Z,380
2016-08-12T09:43:36.490Z,350
2016-08-12T09:44:36.534Z,335
2016-08-12T09:45:36.510Z,335
2016-08-12T09:46:36.480Z,365
2016-08-12T09:47:36.467Z,405
2016-08-12T09:48:36.473Z,440
2016-08-12T09:49:36.465Z,445
2016-08-12T09:50:36.407Z,435
2016-08-12T09:51:36.409Z,425
2016-08-12T09:52:36.409Z,430
2016-08-12T09:53:36.424Z,435
2016-08-12T09:54:36.391Z,465
2016-08-12T09:55:36.404Z,470
2016-08-12T09:56:36.366Z,460
2016-08-12T09:57:37.052Z,455
2016-08-12T09:58:36.347Z,450
2016-08-12T09:59:36.332Z,445
2016-08-12T10:00:36.329Z,440
2016-08-12T10:01:36.306Z,440
2016-08-12T10:02:36.313Z,440
2016-08-12T10:03:36.266Z,435
2016-08-12T10:04:36.272Z,435
2016-08-12T10:05:36.247Z,435
2016-08-12T10:06:36.970Z,430
2016-08-12T10:07:36.915Z,435
2016-08-12T10:08:36.297Z,445
2016-08-12T10:09:36.196Z,455
2016-08-12T10:10:36.223Z,450
2016-08-12T10:11:36.206Z,445
2016-08-12T10:12:36.166Z,450
2016-08-12T10:13:36.159Z,445
2016-08-12T10:14:36.156Z,435
2016-08-12T10:15:36.148Z,445
2016-08-12T10:16:36.141Z,455
2016-08-12T10:17:36.128Z,465
2016-08-12T10:18:36.124Z,455
2016-08-12T10:19:36.110Z,460
2016-08-12T10:20:35.922Z,475
2016-08-12T10:21:35.927Z,480
2016-08-12T10:22:35.916Z,470
2016-08-12T10:23:35.871Z,470
2016-08-12T10:24:35.881Z,480
2016-08-12T10:25:35.862Z,490
2016-08-12T10:26:35.876Z,490
2016-08-12T10:27:35.873Z,510
2016-08-12T10:28:35.849Z,525
2016-08-12T10:29:35.819Z,515
2016-08-12T10:30:35.830Z,510
2016-08-12T10:31:35.796Z,505
2016-08-12T10:32:35.764Z,505
2016-08-12T10:33:35.786Z,520
2016-08-12T10:34:35.773Z,525
2016-08-12T10:35:35.773Z,520
2016-08-12T10:36:35.737Z,520
2016-08-12T10:37:35.733Z,505
2016-08-12T10:38:35.711Z,475
2016-08-12T10:39:35.699Z,455
2016-08-12T10:40:35.717Z,455
2016-08-12T10:41:35.709Z,465
2016-08-12T10:42:35.681Z,465
2016-08-12T10:43:35.667Z,455
2016-08-12T10:44:35.658Z,460
2016-08-12T10:45:35.634Z,460
2016-08-12T10:46:35.629Z,465
2016-08-12T10:47:35.625Z,465
2016-08-12T10:48:35.605Z,460
2016-08-12T10:49:35.576Z,470
2016-08-12T10:50:35.580Z,490
2016-08-12T10:51:35.593Z,495
2016-08-12T10:52:35.569Z,475
2016-08-12T10:53:35.567Z,460
2016-08-12T10:54:35.532Z,465
2016-08-12T10:55:35.510Z,475
2016-08-12T10:56:35.516Z,475
2016-08-12T10:57:35.513Z,470
2016-08-12T10:58:35.528Z,465
2016-08-12T10:59:35.481Z,460
2016-08-12T11:00:35.469Z,470
2016-08-12T11:01:35.440Z,465
2016-08-12T11:02:35.434Z,470
2016-08-12T11:03:35.436Z,470
2016-08-12T11:04:35.434Z,470
2016-08-12T11:05:35.423Z,475
2016-08-12T11:06:35.422Z,475
2016-08-12T11:07:35.393Z,470
2016-08-12T11:08:35.446Z,460
2016-08-12T11:09:35.383Z,455
2016-08-12T11:10:35.358Z,460
2016-08-12T11:11:35.351Z,465
2016-08-12T11:12:35.327Z,480
2016-08-12T11:13:35.346Z,480
2016-08-12T11:14:35.325Z,505
2016-08-12T11:15:35.309Z,515
2016-08-12T11:16:35.296Z,525
2016-08-12T11:17:35.282Z,520
2016-08-12T11:18:35.275Z,510
2016-08-12T11:19:35.251Z,495
2016-08-12T11:20:35.237Z,495
2016-08-12T11:21:35.258Z,500
2016-08-12T11:22:35.210Z,525
2016-08-12T11:23:35.212Z,525
2016-08-12T11:24:35.210Z,515
2016-08-12T11:25:35.169Z,515
2016-08-12T11:26:35.913Z,515
2016-08-12T11:27:35.169Z,515
2016-08-12T11:28:35.154Z,515
2016-08-12T11:29:35.154Z,515
2016-08-12T11:30:35.157Z,515
2016-08-12T11:31:35.133Z,505
2016-08-12T11:32:35.133Z,485
2016-08-12T11:33:35.089Z,475
2016-08-12T11:34:35.111Z,475
2016-08-12T11:35:35.086Z,465
2016-08-12T11:36:35.073Z,455
2016-08-12T11:37:35.050Z,450
2016-08-12T11:38:35.030Z,465
2016-08-12T11:39:35.026Z,480
2016-08-12T11:40:35.044Z,490
2016-08-12T11:41:35.740Z,495
2016-08-12T11:42:35.009Z,495
2016-08-12T11:43:34.991Z,505
2016-08-12T11:44:35.005Z,505
2016-08-12T11:45:34.966Z,525
2016-08-12T11:46:34.947Z,540
2016-08-12T11:47:34.956Z,535
2016-08-12T11:48:34.960Z,530
2016-08-12T11:49:34.934Z,520
2016-08-12T11:50:34.939Z,480
2016-08-12T11:51:34.888Z,470
2016-08-12T11:52:34.902Z,480
2016-08-12T11:53:34.893Z,510
2016-08-12T11:54:34.893Z,530
2016-08-12T11:55:34.852Z,525
2016-08-12T11:56:34.839Z,525
2016-08-12T11:57:34.827Z,520
2016-08-12T11:58:34.823Z,510
2016-08-12T11:59:34.812Z,500
2016-08-12T12:00:34.811Z,500
2016-08-12T12:01:35.499Z,505
2016-08-12T12:02:34.789Z,515
2016-08-12T12:03:34.944Z,515
2016-08-12T12:04:34.907Z,525
2016-08-12T12:05:34.921Z,510
2016-08-12T12:06:34.899Z,465
2016-08-12T12:07:34.870Z,460
2016-08-12T12:08:34.872Z,480
2016-08-12T12:09:34.857Z,485
2016-08-12T12:10:34.872Z,455
2016-08-12T12:11:34.830Z,445
2016-08-12T12:12:34.851Z,430
2016-08-12T12:13:35.562Z,435
2016-08-12T12:14:34.794Z,460
2016-08-12T12:15:35.527Z,480
2016-08-12T12:16:34.771Z,505
2016-08-12T12:17:34.780Z,505
2016-08-12T12:18:34.769Z,500
2016-08-12T12:19:34.729Z,505
2016-08-12T12:20:34.767Z,475
2016-08-12T12:21:34.727Z,490
2016-08-12T12:22:34.723Z,480
2016-08-12T12:23:35.428Z,470
2016-08-12T12:24:34.700Z,470
2016-08-12T12:25:34.694Z,465
2016-08-12T12:26:35.412Z,465
2016-08-12T12:27:34.668Z,455
2016-08-12T12:28:36.072Z,435
2016-08-12T12:29:34.645Z,420
2016-08-12T12:30:34.631Z,415
2016-08-12T12:31:36.013Z,425
2016-08-12T12:32:35.328Z,425
2016-08-12T12:33:35.293Z,430
2016-08-12T12:34:36.687Z,440
2016-08-12T12:35:35.316Z,430
2016-08-12T12:36:35.269Z,425
2016-08-12T12:37:34.590Z,440
2016-08-12T12:38:34.542Z,460
2016-08-12T12:39:34.521Z,475
2016-08-12T12:40:35.248Z,485
2016-08-12T12:41:35.271Z,505
2016-08-12T12:42:34.504Z,505
2016-08-12T12:43:34.491Z,505
2016-08-12T12:44:35.895Z,510
2016-08-12T12:45:35.176Z,490
2016-08-12T12:46:35.151Z,505
2016-08-12T12:47:35.147Z,510
2016-08-12T12:48:34.449Z,525
2016-08-12T12:49:35.087Z,525
2016-08-12T12:50:34.418Z,525
2016-08-12T12:51:35.797Z,525
2016-08-12T12:52:34.373Z,530
2016-08-12T12:53:34.420Z,525
2016-08-12T12:54:34.392Z,475
2016-08-12T12:55:35.761Z,475
2016-08-12T12:56:35.744Z,465
2016-08-12T12:57:34.350Z,465
2016-08-12T12:58:35.025Z,455
2016-08-12T12:59:34.325Z,460
2016-08-12T13:00:34.310Z,470
2016-08-12T13:01:34.308Z,480
2016-08-12T13:02:34.299Z,490
2016-08-12T13:03:34.255Z,505
2016-08-12T13:04:34.278Z,510
2016-08-12T13:05:34.273Z,505
2016-08-12T13:06:34.913Z,500
2016-08-12T13:07:34.934Z,505
2016-08-12T13:08:35.579Z,505
2016-08-12T13:09:35.063Z,510
2016-08-12T13:10:34.882Z,520
2016-08-12T13:11:34.197Z,520
2016-08-12T13:12:34.888Z,520
2016-08-12T13:13:34.179Z,500
2016-08-12T13:14:34.176Z,515
2016-08-12T13:15:34.824Z,530
2016-08-12T13:16:34.132Z,535
2016-08-12T13:17:34.113Z,570
2016-08-12T13:18:34.792Z,600
2016-08-12T13:19:34.084Z,595
2016-08-12T13:20:34.778Z,590
2016-08-12T13:21:34.787Z,605
2016-08-12T13:22:34.769Z,595
2016-08-12T13:23:35.480Z,585
2016-08-12T13:24:34.024Z,590
2016-08-12T13:25:34.726Z,615
2016-08-12T13:26:34.708Z,615
2016-08-12T13:27:34.726Z,620
2016-08-12T13:28:34.004Z,640
2016-08-12T13:29:35.424Z,630
2016-08-12T13:30:33.978Z,585
2016-08-12T13:31:34.701Z,550
2016-08-12T13:32:34.634Z,540
2016-08-12T13:33:34.647Z,530
2016-08-12T13:34:35.332Z,515
2016-08-12T13:35:33.911Z,520
2016-08-12T13:36:33.912Z,510
2016-08-12T13:37:33.904Z,515
2016-08-12T13:38:36.000Z,510
2016-08-12T13:39:35.284Z,510
2016-08-12T13:40:34.579Z,520
2016-08-12T13:41:34.562Z,535
2016-08-12T13:42:34.548Z,545
2016-08-12T13:43:35.197Z,555
2016-08-12T13:44:34.523Z,560
2016-08-12T13:45:33.803Z,550
2016-08-12T13:46:34.507Z,545
2016-08-12T13:47:33.787Z,520
2016-08-12T13:48:35.171Z,510
2016-08-12T13:49:33.777Z,525
2016-08-12T13:50:34.441Z,530
2016-08-12T13:51:34.442Z,530
2016-08-12T13:52:34.423Z,535
2016-08-12T13:53:33.734Z,535
2016-08-12T13:54:34.431Z,520
2016-08-12T13:55:34.361Z,520
2016-08-12T13:56:33.699Z,500
2016-08-12T13:57:33.707Z,480
2016-08-12T13:58:33.679Z,475
2016-08-12T13:59:34.362Z,470
2016-08-12T14:00:35.021Z,455
2016-08-12T14:01:34.327Z,460
2016-08-12T14:02:34.325Z,460
2016-08-12T14:03:34.994Z,490
2016-08-12T14:04:33.599Z,495
2016-08-12T14:05:34.319Z,495
2016-08-12T14:06:34.276Z,515
2016-08-12T14:07:34.273Z,530
2016-08-12T14:08:34.245Z,525
2016-08-12T14:09:33.808Z,505
2016-08-12T14:10:34.216Z,490
2016-08-12T14:11:33.506Z,485
2016-08-12T14:12:34.926Z,485
2016-08-12T14:13:33.485Z,490
2016-08-12T14:14:34.217Z,505
2016-08-12T14:15:34.929Z,525